Terminal Aerodrome Forecast
Issued by NWS Caribou, ME

Home | Current Version | Previous Version | Text Only | Print | Product List | Glossary On
Versions: 1 2 3 4 5 6 7 8 9 10 11
000
FTUS41 KCAR 270520
TAFBGR
TAF
KBGR 270520Z 2706/2806 25005KT P6SM BKN040
     FM271400 28006KT P6SM SCT050
     FM280500 18006KT 5SM -RA BR OVC030=

USA.gov is the U.S. government's official web portal to all federal, state and local government web resources and services.